createdAt,value
2019-05-30T00:00:24.934Z,3.00
2019-05-30T00:02:00.491Z,3.00
2019-05-30T00:03:35.652Z,2.45
2019-05-30T00:05:10.475Z,2.60
2019-05-30T00:06:45.773Z,3.30
2019-05-30T00:08:20.497Z,3.10
2019-05-30T00:09:56.365Z,2.95
2019-05-30T00:11:30.813Z,3.45
2019-05-30T00:13:05.921Z,3.20
2019-05-30T00:14:40.709Z,3.05
2019-05-30T00:16:15.687Z,3.25
2019-05-30T00:17:50.549Z,3.50
2019-05-30T00:19:25.771Z,3.98
2019-05-30T00:21:00.792Z,3.10
2019-05-30T00:22:36.289Z,3.12
2019-05-30T00:24:10.975Z,3.00
2019-05-30T00:25:45.967Z,2.87
2019-05-30T00:27:20.932Z,3.45
2019-05-30T00:28:56.268Z,3.25
2019-05-30T00:30:30.657Z,3.50
2019-05-30T00:32:05.826Z,3.20
2019-05-30T00:33:40.635Z,3.25
2019-05-30T00:35:16.080Z,3.10
2019-05-30T00:36:50.491Z,2.80
2019-05-30T00:38:25.692Z,3.20
2019-05-30T00:40:00.439Z,3.60
2019-05-30T00:41:35.575Z,3.20
2019-05-30T00:43:09.983Z,2.95
2019-05-30T00:44:44.951Z,3.65
2019-05-30T00:46:19.326Z,2.75
2019-05-30T00:47:54.315Z,2.92
2019-05-30T00:49:29.376Z,3.02
2019-05-30T00:51:04.657Z,2.95
2019-05-30T00:52:39.528Z,2.55
2019-05-30T00:54:14.526Z,2.72
2019-05-30T00:55:49.595Z,2.95
2019-05-30T00:57:24.921Z,3.80
2019-05-30T00:59:00.594Z,2.77
2019-05-30T01:00:43.582Z,2.77
2019-05-30T01:02:11.919Z,2.90
2019-05-30T01:03:47.186Z,2.95
2019-05-30T01:05:21.687Z,3.27
2019-05-30T01:06:56.919Z,3.02
2019-05-30T01:08:31.696Z,2.92
2019-05-30T01:10:07.536Z,3.05
2019-05-30T01:11:42.631Z,3.17
2019-05-30T01:13:17.880Z,3.30
2019-05-30T01:14:52.255Z,3.20
2019-05-30T01:16:27.222Z,2.90
2019-05-30T01:18:01.621Z,3.50
2019-05-30T01:19:36.942Z,2.85
2019-05-30T01:21:11.718Z,2.80
2019-05-30T01:22:47.011Z,3.10
2019-05-30T01:24:21.411Z,2.80
2019-05-30T01:25:57.325Z,2.80
2019-05-30T01:27:32.303Z,3.08
2019-05-30T01:29:07.757Z,2.83
2019-05-30T01:30:58.891Z,3.17
2019-05-30T01:32:32.028Z,2.80
2019-05-30T01:34:07.947Z,3.05
2019-05-30T01:35:42.888Z,2.72
2019-05-30T01:37:17.871Z,3.50
2019-05-30T01:38:52.547Z,3.00
2019-05-30T01:40:27.604Z,3.22
2019-05-30T01:42:02.152Z,3.00
2019-05-30T01:43:37.537Z,3.30
2019-05-30T01:45:12.327Z,3.30
2019-05-30T01:46:47.403Z,3.10
2019-05-30T01:48:21.778Z,2.87
2019-05-30T01:49:58.150Z,2.90
2019-05-30T01:51:33.180Z,2.75
2019-05-30T01:53:08.890Z,2.90
2019-05-30T01:54:43.759Z,2.80
2019-05-30T01:56:18.819Z,2.70
2019-05-30T01:57:53.499Z,2.67
2019-05-30T01:59:28.736Z,2.80
2019-05-30T02:01:19.109Z,3.08
2019-05-30T02:02:39.818Z,3.10
2019-05-30T02:04:14.532Z,3.05
2019-05-30T02:05:49.495Z,2.90
2019-05-30T02:07:24.223Z,3.12
2019-05-30T02:08:59.272Z,3.55
2019-05-30T02:10:33.780Z,3.40
2019-05-30T02:12:09.638Z,3.10
2019-05-30T02:13:44.351Z,3.20
2019-05-30T02:15:19.454Z,3.10
2019-05-30T02:16:53.834Z,3.15
2019-05-30T02:18:29.021Z,3.35
2019-05-30T02:20:03.662Z,3.45
2019-05-30T02:21:38.642Z,3.60
2019-05-30T02:23:13.444Z,3.60
2019-05-30T02:24:48.398Z,3.30
2019-05-30T02:26:22.775Z,3.75
2019-05-30T02:27:57.835Z,3.47
2019-05-30T02:29:32.242Z,3.62
2019-05-30T02:31:09.347Z,2.90
2019-05-30T02:32:43.594Z,3.67
2019-05-30T02:34:18.523Z,3.65
2019-05-30T02:35:52.995Z,3.87
2019-05-30T02:37:28.269Z,3.80
2019-05-30T02:39:03.091Z,3.62
2019-05-30T02:40:38.323Z,3.52
2019-05-30T02:42:12.761Z,3.83
2019-05-30T02:43:47.782Z,3.27
2019-05-30T02:45:23.033Z,3.52
2019-05-30T02:47:03.414Z,3.50
2019-05-30T02:48:57.158Z,3.20
2019-05-30T02:50:17.631Z,3.45
2019-05-30T02:51:52.663Z,3.10
2019-05-30T02:53:28.494Z,3.10
2019-05-30T02:55:06.062Z,3.50
2019-05-30T02:56:41.253Z,3.90
2019-05-30T02:58:16.368Z,3.15
2019-05-30T02:59:51.891Z,3.22
2019-05-30T03:01:26.661Z,3.58
2019-05-30T03:03:03.969Z,3.00
2019-05-30T03:04:39.287Z,3.00
2019-05-30T03:06:15.659Z,3.05
2019-05-30T03:07:50.816Z,2.92
2019-05-30T03:09:26.528Z,2.90
2019-05-30T03:11:02.434Z,2.60
2019-05-30T03:12:39.210Z,2.92
2019-05-30T03:14:19.258Z,2.98
2019-05-30T03:15:52.979Z,2.90
2019-05-30T03:17:27.937Z,3.67
2019-05-30T03:19:03.913Z,3.50
2019-05-30T03:20:38.735Z,3.35
2019-05-30T03:22:14.430Z,3.52
2019-05-30T03:23:49.450Z,3.30
2019-05-30T03:25:25.154Z,3.37
2019-05-30T03:26:59.906Z,3.80
2019-05-30T03:28:35.539Z,3.52
2019-05-30T03:30:24.363Z,3.75
2019-05-30T03:31:48.624Z,3.65
2019-05-30T03:33:38.102Z,3.77
2019-05-30T03:35:00.003Z,4.12
2019-05-30T03:36:34.453Z,3.90
2019-05-30T03:38:12.446Z,3.75
2019-05-30T03:39:45.791Z,4.05
2019-05-30T03:41:21.028Z,4.10
2019-05-30T03:42:55.561Z,3.87
2019-05-30T03:44:30.851Z,3.85
2019-05-30T03:46:08.700Z,3.72
2019-05-30T03:47:48.455Z,3.70
2019-05-30T03:49:27.162Z,3.02
2019-05-30T03:51:04.176Z,3.87
2019-05-30T03:52:38.616Z,2.95
2019-05-30T03:54:15.806Z,2.92
2019-05-30T03:55:55.282Z,3.22
2019-05-30T03:57:34.548Z,3.00
2019-05-30T03:59:30.295Z,2.87
2019-05-30T04:01:10.146Z,3.30
2019-05-30T04:02:58.386Z,3.15
2019-05-30T04:04:32.913Z,3.05
2019-05-30T04:06:15.763Z,2.77
2019-05-30T04:07:54.114Z,2.85
2019-05-30T04:09:30.671Z,3.10
2019-05-30T04:11:10.451Z,2.70
2019-05-30T04:13:09.896Z,3.02
2019-05-30T04:14:48.519Z,3.83
2019-05-30T04:16:23.287Z,4.10
2019-05-30T04:17:58.863Z,3.70
2019-05-30T04:19:33.222Z,4.33
2019-05-30T04:21:08.607Z,3.65
2019-05-30T04:22:44.666Z,4.17
2019-05-30T04:24:19.846Z,4.55
2019-05-30T04:25:54.328Z,3.85
2019-05-30T04:27:29.641Z,3.70
2019-05-30T04:29:04.361Z,4.28
2019-05-30T04:30:39.615Z,4.72
2019-05-30T04:32:14.512Z,4.47
2019-05-30T04:33:49.822Z,4.55
2019-05-30T04:35:24.254Z,4.22
2019-05-30T04:36:59.219Z,4.83
2019-05-30T04:38:33.661Z,4.35
2019-05-30T04:40:08.767Z,4.28
2019-05-30T04:41:43.142Z,4.72
2019-05-30T04:43:20.022Z,4.40
2019-05-30T04:44:54.275Z,4.10
2019-05-30T04:46:29.569Z,3.70
2019-05-30T04:48:04.421Z,3.52
2019-05-30T04:49:39.364Z,3.98
2019-05-30T04:51:14.516Z,4.30
2019-05-30T04:52:50.708Z,3.87
2019-05-30T04:54:25.240Z,3.77
2019-05-30T04:56:00.618Z,3.87
2019-05-30T04:57:35.270Z,3.77
2019-05-30T04:59:11.019Z,4.03
2019-05-30T05:00:45.567Z,3.25
2019-05-30T05:02:22.551Z,3.77
2019-05-30T05:03:56.602Z,3.75
2019-05-30T05:05:31.544Z,3.95
2019-05-30T05:07:06.361Z,3.60
2019-05-30T05:08:41.598Z,3.70
2019-05-30T05:10:16.241Z,3.77
2019-05-30T05:11:51.173Z,3.77
2019-05-30T05:13:25.636Z,3.80
2019-05-30T05:15:00.831Z,3.50
2019-05-30T05:16:36.449Z,3.08
2019-05-30T05:18:12.955Z,3.37
2019-05-30T05:19:47.819Z,3.20
2019-05-30T05:21:23.113Z,3.53
2019-05-30T05:22:58.080Z,3.45
2019-05-30T05:24:33.312Z,3.93
2019-05-30T05:26:07.689Z,2.90
2019-05-30T05:27:42.618Z,3.30
2019-05-30T05:29:17.939Z,3.50
2019-05-30T05:30:53.120Z,3.50
2019-05-30T05:32:27.597Z,3.30
2019-05-30T05:34:02.550Z,3.33
2019-05-30T05:35:37.159Z,3.67
2019-05-30T05:37:12.413Z,3.87
2019-05-30T05:38:46.876Z,3.47
2019-05-30T05:40:22.751Z,2.93
2019-05-30T05:41:57.731Z,3.03
2019-05-30T05:43:33.094Z,3.10
2019-05-30T05:45:08.520Z,2.90
2019-05-30T05:46:43.872Z,2.60
2019-05-30T05:48:18.634Z,2.90
2019-05-30T05:49:53.569Z,2.27
2019-05-30T05:51:29.062Z,2.93
2019-05-30T05:53:04.154Z,2.37
2019-05-30T05:54:39.147Z,2.10
2019-05-30T05:56:14.086Z,2.00
2019-05-30T05:57:48.768Z,2.13
2019-05-30T05:59:25.109Z,2.37
2019-05-30T06:00:59.658Z,2.00
2019-05-30T06:02:34.624Z,2.10
2019-05-30T06:04:13.251Z,1.80
2019-05-30T06:05:52.968Z,2.13
2019-05-30T06:07:22.452Z,2.30
2019-05-30T06:08:57.949Z,1.93
2019-05-30T06:10:32.347Z,2.30
2019-05-30T06:12:07.390Z,2.03
2019-05-30T06:13:42.023Z,2.33
2019-05-30T06:15:17.069Z,1.80
2019-05-30T06:16:55.078Z,2.17
2019-05-30T06:18:28.766Z,2.33
2019-05-30T06:20:03.224Z,2.03
2019-05-30T06:21:51.054Z,1.77
2019-05-30T06:23:15.117Z,1.77
2019-05-30T06:24:50.142Z,2.07
2019-05-30T06:26:24.530Z,1.90
2019-05-30T06:27:59.529Z,2.13
2019-05-30T06:29:33.885Z,1.90
2019-05-30T06:31:08.826Z,2.10
2019-05-30T06:32:43.199Z,2.47
2019-05-30T06:34:29.280Z,2.00
2019-05-30T06:35:54.690Z,1.87
2019-05-30T06:37:29.910Z,1.73
2019-05-30T06:39:06.705Z,2.00
2019-05-30T06:40:41.986Z,1.70
2019-05-30T06:42:16.966Z,2.17
2019-05-30T06:43:52.549Z,2.00
2019-05-30T06:45:28.420Z,1.90
2019-05-30T06:47:03.474Z,2.40
2019-05-30T06:48:38.194Z,2.03
2019-05-30T06:50:14.111Z,1.87
2019-05-30T06:51:49.190Z,2.00
2019-05-30T06:53:25.120Z,1.73
2019-05-30T06:55:00.238Z,2.00
2019-05-30T06:56:35.807Z,1.77
2019-05-30T06:58:10.857Z,1.80
2019-05-30T06:59:46.720Z,1.70
2019-05-30T07:01:22.038Z,1.80
2019-05-30T07:02:57.813Z,1.90
2019-05-30T07:04:50.428Z,2.03
2019-05-30T07:06:10.660Z,2.00
2019-05-30T07:07:45.914Z,1.93
2019-05-30T07:09:22.606Z,2.10
2019-05-30T07:10:57.882Z,1.83
2019-05-30T07:12:33.450Z,1.73
2019-05-30T07:14:08.439Z,1.40
2019-05-30T07:15:44.045Z,1.90
2019-05-30T07:17:18.741Z,2.00
2019-05-30T07:18:53.738Z,1.70
2019-05-30T07:20:28.152Z,1.60
2019-05-30T07:22:03.095Z,1.63
2019-05-30T07:23:39.558Z,1.53
2019-05-30T07:25:15.948Z,1.93
2019-05-30T07:26:50.671Z,1.80
2019-05-30T07:28:26.539Z,1.90
2019-05-30T07:30:02.418Z,1.50
2019-05-30T07:31:38.335Z,1.50
2019-05-30T07:33:13.089Z,1.50
2019-05-30T07:34:48.929Z,1.70
2019-05-30T07:36:24.124Z,1.47
2019-05-30T07:38:00.101Z,1.67
2019-05-30T07:39:37.117Z,1.60
2019-05-30T07:41:12.168Z,1.60
2019-05-30T07:42:47.594Z,1.70
2019-05-30T07:44:23.142Z,1.43
2019-05-30T07:45:58.733Z,1.70
2019-05-30T07:47:34.455Z,1.70
2019-05-30T07:49:09.212Z,1.60
2019-05-30T07:50:44.777Z,1.50
2019-05-30T07:52:20.145Z,1.30
2019-05-30T07:53:55.697Z,1.40
2019-05-30T07:55:31.067Z,1.33
2019-05-30T07:57:06.943Z,1.20
2019-05-30T07:58:41.708Z,1.07
2019-05-30T08:00:18.631Z,1.20
2019-05-30T08:01:53.355Z,1.37
2019-05-30T08:03:30.495Z,1.00
2019-05-30T08:05:20.730Z,1.10
2019-05-30T08:06:43.912Z,0.90
2019-05-30T08:08:19.031Z,0.70
2019-05-30T08:09:54.868Z,1.10
2019-05-30T08:11:30.811Z,1.10
2019-05-30T08:13:06.226Z,1.00
2019-05-30T08:14:40.635Z,1.20
2019-05-30T08:16:16.435Z,1.00
2019-05-30T08:17:51.409Z,1.10
2019-05-30T08:19:27.761Z,0.93
2019-05-30T08:21:02.894Z,1.10
2019-05-30T08:22:38.371Z,0.90
2019-05-30T08:24:12.825Z,0.97
2019-05-30T08:25:47.759Z,1.07
2019-05-30T08:27:22.634Z,1.07
2019-05-30T08:28:58.459Z,1.07
2019-05-30T08:30:34.559Z,1.30
2019-05-30T08:32:10.028Z,1.00
2019-05-30T08:33:47.455Z,1.13
2019-05-30T08:35:22.453Z,1.10
2019-05-30T08:36:57.421Z,1.20
2019-05-30T08:38:33.136Z,1.00
2019-05-30T08:40:08.523Z,1.07
2019-05-30T08:41:43.958Z,1.10
2019-05-30T08:43:19.199Z,1.00
2019-05-30T08:44:54.547Z,1.20
2019-05-30T08:46:30.250Z,1.40
2019-05-30T08:48:06.104Z,1.30
2019-05-30T08:49:41.071Z,1.10
2019-05-30T08:51:16.682Z,1.37
2019-05-30T08:52:51.753Z,1.10
2019-05-30T08:54:27.168Z,1.10
2019-05-30T08:56:02.383Z,1.30
2019-05-30T08:57:38.704Z,1.20
2019-05-30T08:59:13.893Z,1.40
2019-05-30T09:00:49.258Z,1.10
2019-05-30T09:02:24.518Z,0.97
2019-05-30T09:03:59.903Z,1.20
2019-05-30T09:05:35.982Z,1.07
2019-05-30T09:07:11.663Z,1.17
2019-05-30T09:08:46.881Z,1.00
2019-05-30T09:10:22.971Z,1.17
2019-05-30T09:11:57.958Z,1.47
2019-05-30T09:13:33.966Z,1.20
2019-05-30T09:15:09.526Z,1.20
2019-05-30T09:16:46.228Z,1.30
2019-05-30T09:18:20.793Z,1.10
2019-05-30T09:19:55.742Z,1.07
2019-05-30T09:21:30.196Z,1.07
2019-05-30T09:23:05.304Z,1.00
2019-05-30T09:24:40.453Z,1.10
2019-05-30T09:26:15.983Z,1.13
2019-05-30T09:27:50.776Z,1.20
2019-05-30T09:29:26.345Z,1.30
2019-05-30T09:31:01.132Z,1.23
2019-05-30T09:32:39.371Z,1.30
2019-05-30T09:34:13.167Z,1.20
2019-05-30T09:35:49.097Z,1.20
2019-05-30T09:37:23.838Z,1.10
2019-05-30T09:38:59.236Z,1.10
2019-05-30T09:40:35.980Z,1.20
2019-05-30T09:42:11.416Z,1.27
2019-05-30T09:43:46.397Z,1.30
2019-05-30T09:45:23.803Z,1.30
2019-05-30T09:46:58.856Z,1.40
2019-05-30T09:48:34.469Z,1.40
2019-05-30T09:50:10.468Z,1.07
2019-05-30T09:51:46.919Z,1.10
2019-05-30T09:53:21.983Z,1.20
2019-05-30T09:54:57.599Z,1.50
2019-05-30T09:56:32.548Z,1.30
2019-05-30T09:58:08.266Z,1.30
2019-05-30T09:59:43.578Z,1.30
2019-05-30T10:01:19.691Z,1.20
2019-05-30T10:02:54.759Z,1.50
2019-05-30T10:04:30.116Z,1.30
2019-05-30T10:06:05.514Z,1.20
2019-05-30T10:07:40.854Z,1.10
2019-05-30T10:09:16.335Z,1.30
2019-05-30T10:10:51.693Z,1.20
2019-05-30T10:12:26.682Z,1.40
2019-05-30T10:14:02.073Z,1.40
2019-05-30T10:15:37.411Z,1.30
2019-05-30T10:17:12.766Z,1.50
2019-05-30T10:18:49.014Z,1.23
2019-05-30T10:20:25.217Z,1.20
2019-05-30T10:22:00.203Z,1.20
2019-05-30T10:23:35.931Z,1.40
2019-05-30T10:25:11.249Z,1.27
2019-05-30T10:26:47.203Z,1.50
2019-05-30T10:28:22.227Z,1.63
2019-05-30T10:29:58.065Z,1.60
2019-05-30T10:31:33.286Z,1.50
2019-05-30T10:33:08.632Z,1.53
2019-05-30T10:34:43.625Z,1.33
2019-05-30T10:36:20.185Z,1.10
2019-05-30T10:37:55.413Z,1.40
2019-05-30T10:39:31.020Z,1.40
2019-05-30T10:41:06.316Z,1.33
2019-05-30T10:42:41.997Z,1.60
2019-05-30T10:44:17.070Z,1.23
2019-05-30T10:45:53.387Z,0.90
2019-05-30T10:47:27.828Z,1.17
2019-05-30T10:49:03.019Z,1.23
2019-05-30T10:50:37.678Z,1.10
2019-05-30T10:52:12.625Z,1.33
2019-05-30T10:53:48.585Z,1.07
2019-05-30T10:55:24.090Z,1.07
2019-05-30T10:56:58.959Z,1.30
2019-05-30T10:58:34.154Z,1.40
2019-05-30T11:00:10.679Z,1.10
2019-05-30T11:01:48.390Z,1.30
2019-05-30T11:03:24.523Z,1.30
2019-05-30T11:04:59.755Z,0.93
2019-05-30T11:07:09.663Z,1.20
2019-05-30T11:08:35.616Z,1.10
2019-05-30T11:10:12.900Z,1.10
2019-05-30T11:11:48.599Z,1.00
2019-05-30T11:13:23.163Z,1.00
2019-05-30T11:14:58.093Z,1.07
2019-05-30T11:16:32.585Z,1.10
2019-05-30T11:18:07.630Z,1.00
2019-05-30T11:19:42.369Z,1.10
2019-05-30T11:21:18.382Z,1.20
2019-05-30T11:22:54.587Z,1.10
2019-05-30T11:24:30.242Z,1.23
2019-05-30T11:26:05.270Z,1.10
2019-05-30T11:27:40.814Z,1.10
2019-05-30T11:29:15.394Z,1.23
2019-05-30T11:30:50.637Z,1.03
2019-05-30T11:32:25.571Z,1.20
2019-05-30T11:34:01.112Z,0.97
2019-05-30T11:35:36.370Z,1.27
2019-05-30T11:37:18.503Z,0.93
2019-05-30T11:38:49.126Z,0.90
2019-05-30T11:40:24.258Z,1.17
2019-05-30T11:41:59.533Z,1.00
2019-05-30T11:43:35.194Z,0.90
2019-05-30T11:45:10.030Z,1.00
2019-05-30T11:46:45.245Z,1.20
2019-05-30T11:48:19.632Z,0.90
2019-05-30T11:49:55.731Z,0.90
2019-05-30T11:51:30.113Z,0.80
2019-05-30T11:53:05.332Z,0.90
2019-05-30T11:54:39.945Z,0.90
2019-05-30T11:56:15.221Z,1.00
2019-05-30T11:57:50.013Z,1.10
2019-05-30T11:59:25.157Z,0.90
2019-05-30T12:01:00.606Z,1.13
2019-05-30T12:02:35.647Z,1.00
2019-05-30T12:04:10.470Z,1.03
2019-05-30T12:05:45.402Z,0.90
2019-05-30T12:07:35.460Z,1.00
2019-05-30T12:08:57.021Z,1.10
2019-05-30T12:10:31.757Z,1.07
2019-05-30T12:12:06.777Z,1.13
2019-05-30T12:13:41.538Z,0.90
2019-05-30T12:15:17.355Z,1.20
2019-05-30T12:16:53.185Z,1.10
2019-05-30T12:18:28.795Z,1.10
2019-05-30T12:20:03.837Z,1.00
2019-05-30T12:21:38.828Z,0.87
2019-05-30T12:23:13.283Z,1.00
2019-05-30T12:24:48.475Z,0.90
2019-05-30T12:26:22.852Z,1.20
2019-05-30T12:27:58.157Z,1.20
2019-05-30T12:29:33.333Z,1.20
2019-05-30T12:31:08.882Z,1.10
2019-05-30T12:32:43.928Z,1.00
2019-05-30T12:34:19.482Z,1.20
2019-05-30T12:35:54.456Z,1.20
2019-05-30T12:37:30.328Z,1.30
2019-05-30T12:39:06.708Z,1.00
2019-05-30T12:40:42.588Z,1.30
2019-05-30T12:42:17.348Z,1.20
2019-05-30T12:43:53.059Z,1.10
2019-05-30T12:45:27.645Z,0.97
2019-05-30T12:47:03.507Z,1.10
2019-05-30T12:48:38.180Z,0.90
2019-05-30T12:50:16.559Z,0.80
2019-05-30T12:51:49.749Z,0.97
2019-05-30T12:53:25.075Z,1.10
2019-05-30T12:55:00.953Z,1.10
2019-05-30T12:56:36.581Z,1.30
2019-05-30T12:58:11.573Z,1.00
2019-05-30T12:59:46.798Z,1.07
2019-05-30T13:01:21.234Z,1.00
2019-05-30T13:02:56.740Z,1.10
2019-05-30T13:04:31.227Z,1.10
2019-05-30T13:06:07.569Z,0.90
2019-05-30T13:07:42.641Z,1.00
2019-05-30T13:09:18.744Z,1.00
2019-05-30T13:10:53.715Z,1.10
2019-05-30T13:12:29.094Z,1.10
2019-05-30T13:14:04.066Z,0.80
2019-05-30T13:15:39.433Z,1.00
2019-05-30T13:17:14.661Z,1.00
2019-05-30T13:18:50.014Z,1.20
2019-05-30T13:20:25.250Z,1.10
2019-05-30T13:22:01.397Z,1.00
2019-05-30T13:23:36.477Z,1.20
2019-05-30T13:25:13.373Z,1.27
2019-05-30T13:26:48.385Z,1.20
2019-05-30T13:28:23.738Z,0.90
2019-05-30T13:29:59.911Z,1.20
2019-05-30T13:31:35.358Z,1.13
2019-05-30T13:33:10.330Z,0.93
2019-05-30T13:34:46.186Z,0.90
2019-05-30T13:36:20.566Z,1.00
2019-05-30T13:37:57.013Z,1.13
2019-05-30T13:39:31.720Z,1.10
2019-05-30T13:41:07.763Z,1.00
2019-05-30T13:42:42.993Z,1.00
2019-05-30T13:44:18.660Z,1.20
2019-05-30T13:45:53.626Z,1.10
2019-05-30T13:47:28.978Z,1.20
2019-05-30T13:49:04.653Z,1.30
2019-05-30T13:50:39.841Z,0.90
2019-05-30T13:52:14.186Z,1.20
2019-05-30T13:53:49.122Z,0.93
2019-05-30T13:55:23.627Z,1.30
2019-05-30T13:56:59.421Z,1.20
2019-05-30T13:58:34.010Z,1.30
2019-05-30T14:00:10.631Z,1.03
2019-05-30T14:01:45.666Z,1.10
2019-05-30T14:03:22.494Z,1.37
2019-05-30T14:04:57.262Z,1.40
2019-05-30T14:06:33.078Z,1.13
2019-05-30T14:08:10.468Z,1.20
2019-05-30T14:09:45.163Z,1.20
2019-05-30T14:11:20.263Z,1.10
2019-05-30T14:12:56.352Z,1.20
2019-05-30T14:14:31.114Z,1.07
2019-05-30T14:16:06.928Z,1.27
2019-05-30T14:17:41.346Z,1.10
2019-05-30T14:19:16.754Z,1.20
2019-05-30T14:20:52.168Z,1.10
2019-05-30T14:22:27.809Z,1.17
2019-05-30T14:24:03.384Z,1.10
2019-05-30T14:25:38.866Z,1.07
2019-05-30T14:27:13.825Z,1.20
2019-05-30T14:28:49.471Z,1.30
2019-05-30T14:30:24.974Z,1.10
2019-05-30T14:32:01.872Z,1.60
2019-05-30T14:33:36.889Z,1.30
2019-05-30T14:35:13.768Z,1.30
2019-05-30T14:36:48.242Z,1.20
2019-05-30T14:38:23.922Z,1.37
2019-05-30T14:39:59.397Z,1.30
2019-05-30T14:41:35.006Z,1.30
2019-05-30T14:43:11.498Z,1.50
2019-05-30T14:44:46.682Z,1.23
2019-05-30T14:46:21.769Z,1.10
2019-05-30T14:47:57.001Z,1.50
2019-05-30T14:49:31.637Z,1.30
2019-05-30T14:51:06.847Z,1.40
2019-05-30T14:52:41.827Z,1.13
2019-05-30T14:54:17.528Z,1.17
2019-05-30T14:55:52.552Z,1.47
2019-05-30T14:57:28.143Z,1.30
2019-05-30T14:59:02.925Z,1.33
2019-05-30T15:00:38.822Z,1.33
2019-05-30T15:02:13.617Z,1.40
2019-05-30T15:03:49.162Z,1.20
2019-05-30T15:05:24.276Z,1.20
2019-05-30T15:06:59.825Z,1.30
2019-05-30T15:08:34.681Z,1.40
2019-05-30T15:10:12.736Z,1.20
2019-05-30T15:11:47.919Z,1.40
2019-05-30T15:13:23.491Z,1.40
2019-05-30T15:14:58.739Z,1.90
2019-05-30T15:16:34.555Z,1.40
2019-05-30T15:18:09.320Z,1.67
2019-05-30T15:19:44.893Z,1.80
2019-05-30T15:21:19.932Z,1.77
2019-05-30T15:22:55.996Z,1.47
2019-05-30T15:24:30.772Z,1.80
2019-05-30T15:26:06.015Z,1.50
2019-05-30T15:27:40.752Z,1.30
2019-05-30T15:29:16.320Z,1.53
2019-05-30T15:30:50.809Z,1.30
2019-05-30T15:32:25.974Z,1.30
2019-05-30T15:34:00.570Z,1.40
2019-05-30T15:35:35.780Z,1.50
2019-05-30T15:37:10.704Z,1.30
2019-05-30T15:38:45.980Z,1.43
2019-05-30T15:40:20.691Z,1.20
2019-05-30T15:41:55.904Z,1.27
2019-05-30T15:43:30.938Z,1.33
2019-05-30T15:45:07.898Z,1.20
2019-05-30T15:46:42.397Z,1.30
2019-05-30T15:48:18.456Z,1.37
2019-05-30T15:49:53.594Z,1.63
2019-05-30T15:51:28.818Z,1.80
2019-05-30T15:53:03.438Z,1.37
2019-05-30T15:54:38.362Z,1.43
2019-05-30T15:56:13.218Z,1.40
2019-05-30T15:57:48.634Z,1.60
2019-05-30T15:59:22.994Z,2.00
2019-05-30T16:00:57.938Z,2.73
2019-05-30T16:02:32.584Z,2.10
2019-05-30T16:04:07.512Z,2.00
2019-05-30T16:05:41.891Z,2.03
2019-05-30T16:07:16.913Z,1.90
2019-05-30T16:08:51.757Z,1.77
2019-05-30T16:10:26.750Z,1.50
2019-05-30T16:12:01.421Z,1.87
2019-05-30T16:13:36.652Z,2.60
2019-05-30T16:15:11.869Z,1.60
2019-05-30T16:16:47.331Z,1.60
2019-05-30T16:18:22.119Z,1.43
2019-05-30T16:19:57.086Z,1.50
2019-05-30T16:21:31.419Z,1.50
2019-05-30T16:23:06.387Z,1.77
2019-05-30T16:24:40.811Z,1.57
2019-05-30T16:26:16.175Z,1.70
2019-05-30T16:27:51.495Z,1.40
2019-05-30T16:29:26.766Z,1.43
2019-05-30T16:31:01.145Z,1.40
2019-05-30T16:32:36.466Z,1.17
2019-05-30T16:34:11.206Z,1.53
2019-05-30T16:35:46.483Z,1.50
2019-05-30T16:37:20.834Z,1.50
2019-05-30T16:38:55.817Z,1.60
2019-05-30T16:40:30.595Z,1.83
2019-05-30T16:42:06.032Z,1.40
2019-05-30T16:43:43.824Z,1.43
2019-05-30T16:45:23.182Z,1.40
2019-05-30T16:46:55.021Z,1.57
2019-05-30T16:48:29.946Z,1.70
2019-05-30T16:50:05.095Z,1.33
2019-05-30T16:51:40.046Z,1.50
2019-05-30T16:53:14.992Z,1.40
2019-05-30T16:54:50.031Z,1.77
2019-05-30T16:56:25.573Z,1.40
2019-05-30T16:58:01.349Z,1.40
2019-05-30T16:59:36.055Z,1.57
2019-05-30T17:01:10.987Z,1.80
2019-05-30T17:02:45.689Z,1.40
2019-05-30T17:04:20.993Z,1.60
2019-05-30T17:05:55.955Z,1.40
2019-05-30T17:07:30.886Z,1.40
2019-05-30T17:09:06.717Z,2.70
2019-05-30T17:10:42.144Z,1.73
2019-05-30T17:12:17.419Z,1.97
2019-05-30T17:13:52.944Z,1.70
2019-05-30T17:15:27.962Z,1.70
2019-05-30T17:17:03.211Z,1.80
2019-05-30T17:18:37.658Z,1.40
2019-05-30T17:20:16.316Z,1.80
2019-05-30T17:21:50.939Z,1.90
2019-05-30T17:23:26.963Z,2.10
2019-05-30T17:25:01.479Z,2.47
2019-05-30T17:26:36.470Z,2.27
2019-05-30T17:28:11.142Z,2.60
2019-05-30T17:29:46.098Z,2.70
2019-05-30T17:31:21.870Z,3.10
2019-05-30T17:32:57.045Z,2.53
2019-05-30T17:34:32.342Z,2.20
2019-05-30T17:36:08.018Z,1.70
2019-05-30T17:37:43.125Z,1.80
2019-05-30T17:39:18.940Z,1.70
2019-05-30T17:40:53.851Z,1.60
2019-05-30T17:42:29.475Z,1.70
2019-05-30T17:44:04.202Z,1.60
2019-05-30T17:45:39.133Z,1.70
2019-05-30T17:47:13.894Z,1.43
2019-05-30T17:48:49.434Z,1.53
2019-05-30T17:50:23.954Z,1.50
2019-05-30T17:51:59.343Z,1.50
2019-05-30T17:53:34.398Z,1.40
2019-05-30T17:55:11.584Z,1.80
2019-05-30T17:56:46.629Z,1.70
2019-05-30T17:58:22.202Z,1.80
2019-05-30T17:59:57.304Z,1.30
2019-05-30T18:01:32.861Z,1.70
2019-05-30T18:03:07.966Z,1.63
2019-05-30T18:04:43.841Z,1.50
2019-05-30T18:06:18.939Z,1.40
2019-05-30T18:07:54.520Z,1.37
2019-05-30T18:09:29.614Z,1.80
2019-05-30T18:11:05.270Z,1.57
2019-05-30T18:12:40.035Z,1.50
2019-05-30T18:14:15.678Z,1.70
2019-05-30T18:15:50.754Z,1.63
2019-05-30T18:17:27.143Z,1.90
2019-05-30T18:19:01.992Z,1.63
2019-05-30T18:20:47.811Z,1.80
2019-05-30T18:22:14.060Z,2.53
2019-05-30T18:23:49.615Z,2.63
2019-05-30T18:25:25.621Z,2.40
2019-05-30T18:27:01.447Z,2.10
2019-05-30T18:28:35.906Z,2.60
2019-05-30T18:30:11.384Z,2.40
2019-05-30T18:31:46.407Z,2.10
2019-05-30T18:33:22.172Z,1.70
2019-05-30T18:34:57.530Z,1.97
2019-05-30T18:36:33.241Z,2.03
2019-05-30T18:38:08.711Z,2.00
2019-05-30T18:39:44.396Z,2.00
2019-05-30T18:41:19.242Z,2.00
2019-05-30T18:42:54.864Z,2.03
2019-05-30T18:44:32.394Z,1.93
2019-05-30T18:46:06.257Z,2.00
2019-05-30T18:47:40.906Z,2.23
2019-05-30T18:49:15.924Z,1.83
2019-05-30T18:50:50.280Z,2.30
2019-05-30T18:52:26.123Z,2.23
2019-05-30T18:54:00.646Z,2.10
2019-05-30T18:55:37.027Z,2.10
2019-05-30T18:57:12.267Z,2.40
2019-05-30T18:58:47.613Z,2.23
2019-05-30T19:00:22.097Z,2.10
2019-05-30T19:01:57.050Z,2.50
2019-05-30T19:03:33.258Z,2.30
2019-05-30T19:05:09.273Z,2.43
2019-05-30T19:06:43.901Z,2.30
2019-05-30T19:08:18.912Z,2.00
2019-05-30T19:09:53.362Z,2.40
2019-05-30T19:11:33.173Z,2.33
2019-05-30T19:13:04.817Z,2.40
2019-05-30T19:14:39.750Z,2.10
2019-05-30T19:16:14.378Z,2.00
2019-05-30T19:17:49.546Z,2.30
2019-05-30T19:19:23.935Z,2.50
2019-05-30T19:20:59.160Z,2.73
2019-05-30T19:22:34.178Z,1.80
2019-05-30T19:24:09.222Z,2.27
2019-05-30T19:25:43.972Z,2.40
2019-05-30T19:27:19.190Z,2.07
2019-05-30T19:28:53.982Z,2.10
2019-05-30T19:30:28.954Z,2.10
2019-05-30T19:32:03.302Z,2.33
2019-05-30T19:33:38.506Z,2.20
2019-05-30T19:35:13.557Z,2.50
2019-05-30T19:36:48.513Z,2.30
2019-05-30T19:38:22.961Z,2.37
2019-05-30T19:39:58.157Z,2.23
2019-05-30T19:41:45.775Z,2.43
2019-05-30T19:43:09.753Z,2.57
2019-05-30T19:44:44.208Z,3.03
2019-05-30T19:46:19.143Z,2.90
2019-05-30T19:47:53.509Z,2.80
2019-05-30T19:49:28.681Z,3.20
2019-05-30T19:51:03.036Z,3.07
2019-05-30T19:52:39.134Z,3.23
2019-05-30T19:54:14.042Z,3.33
2019-05-30T19:55:49.267Z,2.60
2019-05-30T19:57:23.686Z,2.80
2019-05-30T19:58:58.619Z,2.73
2019-05-30T20:00:34.071Z,2.90
2019-05-30T20:02:09.878Z,2.30
2019-05-30T20:03:47.016Z,2.83
2019-05-30T20:05:21.097Z,3.07
2019-05-30T20:06:55.785Z,2.87
2019-05-30T20:08:44.829Z,2.73
2019-05-30T20:10:07.394Z,3.00
2019-05-30T20:11:42.363Z,2.93
2019-05-30T20:13:17.518Z,3.50
2019-05-30T20:14:52.453Z,3.63
2019-05-30T20:16:26.878Z,4.20
2019-05-30T20:18:01.907Z,4.47
2019-05-30T20:19:36.251Z,4.03
2019-05-30T20:21:11.197Z,4.83
2019-05-30T20:22:45.833Z,4.77
2019-05-30T20:24:21.083Z,5.00
2019-05-30T20:25:55.562Z,5.50
2019-05-30T20:27:30.826Z,5.80
2019-05-30T20:29:05.549Z,5.60
2019-05-30T20:30:41.195Z,5.70
2019-05-30T20:32:15.985Z,5.63
2019-05-30T20:33:50.953Z,5.43
2019-05-30T20:35:26.270Z,6.20
2019-05-30T20:37:01.216Z,5.70
2019-05-30T20:38:36.512Z,5.27
2019-05-30T20:40:12.902Z,5.87
2019-05-30T20:41:47.617Z,5.53
2019-05-30T20:43:22.683Z,5.70
2019-05-30T20:44:57.033Z,5.60
2019-05-30T20:46:32.048Z,5.40
2019-05-30T20:48:06.421Z,5.40
2019-05-30T20:49:41.385Z,5.70
2019-05-30T20:51:21.159Z,5.20
2019-05-30T20:52:52.702Z,4.50
2019-05-30T20:54:27.057Z,4.80
2019-05-30T20:56:02.354Z,5.10
2019-05-30T20:57:36.694Z,5.50
2019-05-30T20:59:11.683Z,5.30
2019-05-30T21:00:46.032Z,5.27
2019-05-30T21:02:21.006Z,5.53
2019-05-30T21:03:55.359Z,6.03
2019-05-30T21:05:30.306Z,5.27
2019-05-30T21:07:04.801Z,6.00
2019-05-30T21:08:41.253Z,6.23
2019-05-30T21:10:16.172Z,6.03